createdAt,value
2019-05-15T00:00:49.017Z,94025.27
2019-05-15T00:03:19.943Z,94023.06
2019-05-15T00:05:49.503Z,94023.59
2019-05-15T00:08:18.459Z,94034.33
2019-05-15T00:10:48.415Z,94035.80
2019-05-15T00:13:18.463Z,94042.47
2019-05-15T00:15:48.140Z,94050.88
2019-05-15T00:18:18.589Z,94045.80
2019-05-15T00:20:49.705Z,94041.59
2019-05-15T00:23:18.360Z,94047.80
2019-05-15T00:25:48.741Z,94050.02
2019-05-15T00:28:18.549Z,94039.27
2019-05-15T00:30:48.158Z,94042.37
2019-05-15T00:33:19.167Z,94045.46
2019-05-15T00:35:48.564Z,94049.16
2019-05-15T00:38:18.617Z,94040.99
2019-05-15T00:40:49.601Z,94038.66
2019-05-15T00:43:18.405Z,94038.16
2019-05-15T00:45:48.838Z,94041.01
2019-05-15T00:48:19.330Z,94038.03
2019-05-15T00:50:48.558Z,93989.93
2019-05-15T00:53:19.643Z,94032.23
2019-05-15T00:55:48.621Z,94022.44
2019-05-15T00:58:19.906Z,94025.44
2019-05-15T01:00:48.636Z,94024.80
2019-05-15T01:03:18.272Z,94028.38
2019-05-15T01:05:48.085Z,94023.67
2019-05-15T01:08:19.152Z,94032.83
2019-05-15T01:10:48.854Z,94035.40
2019-05-15T01:13:18.951Z,94030.59
2019-05-15T01:15:48.931Z,94021.69
2019-05-15T01:18:18.671Z,93984.50
2019-05-15T01:20:49.276Z,94014.52
2019-05-15T01:23:18.755Z,94018.23
2019-05-15T01:25:48.238Z,94017.01
2019-05-15T01:28:18.398Z,94014.29
2019-05-15T01:30:48.698Z,94013.53
2019-05-15T01:33:18.909Z,94016.23
2019-05-15T01:35:48.762Z,94014.75
2019-05-15T01:38:18.677Z,94005.62
2019-05-15T01:40:48.510Z,93998.84
2019-05-15T01:43:18.693Z,93994.50
2019-05-15T01:45:48.311Z,93996.59
2019-05-15T01:48:18.947Z,93991.80
2019-05-15T01:50:49.209Z,93985.51
2019-05-15T01:53:18.712Z,93981.92
2019-05-15T01:55:48.340Z,93974.76
2019-05-15T01:58:18.568Z,93966.21
2019-05-15T02:00:48.372Z,93978.08
2019-05-15T02:03:18.374Z,93971.30
2019-05-15T02:05:48.095Z,93970.56
2019-05-15T02:08:19.074Z,93964.00
2019-05-15T02:10:49.417Z,93965.23
2019-05-15T02:13:18.675Z,93964.48
2019-05-15T02:15:48.254Z,93965.09
2019-05-15T02:18:19.152Z,93968.33
2019-05-15T02:20:49.417Z,93964.99
2019-05-15T02:23:18.917Z,93950.67
2019-05-15T02:25:48.210Z,93957.47
2019-05-15T02:28:18.380Z,93953.27
2019-05-15T02:30:50.347Z,93952.27
2019-05-15T02:33:18.925Z,93945.73
2019-05-15T02:35:50.069Z,93949.18
2019-05-15T02:38:19.952Z,93948.31
2019-05-15T02:40:49.369Z,93953.11
2019-05-15T02:43:18.975Z,93944.47
2019-05-15T02:45:50.955Z,93946.45
2019-05-15T02:48:19.903Z,93945.31
2019-05-15T02:50:50.125Z,93942.60
2019-05-15T02:53:19.182Z,93944.82
2019-05-15T02:55:49.497Z,93944.20
2019-05-15T02:58:21.283Z,93941.95
2019-05-15T03:00:53.117Z,93946.03
2019-05-15T03:03:20.664Z,93943.69
2019-05-15T03:05:49.948Z,93941.39
2019-05-15T03:08:19.517Z,93941.98
2019-05-15T03:10:49.648Z,93946.82
2019-05-15T03:13:19.003Z,93952.62
2019-05-15T03:15:48.864Z,93952.91
2019-05-15T03:18:19.421Z,93952.64
2019-05-15T03:20:50.104Z,93959.94
2019-05-15T03:23:19.993Z,93963.27
2019-05-15T03:25:49.262Z,93961.52
2019-05-15T03:28:19.087Z,93963.87
2019-05-15T03:31:14.703Z,93966.45
2019-05-15T03:33:27.420Z,93963.52
2019-05-15T03:35:54.199Z,93958.44
2019-05-15T03:38:19.629Z,93957.55
2019-05-15T03:40:49.853Z,93958.19
2019-05-15T03:43:18.767Z,93941.28
2019-05-15T03:45:49.272Z,93965.23
2019-05-15T03:48:19.651Z,93967.83
2019-05-15T03:50:49.079Z,93969.80
2019-05-15T03:53:19.265Z,93974.86
2019-05-15T03:55:48.934Z,93973.02
2019-05-15T03:58:21.481Z,93977.34
2019-05-15T04:00:49.748Z,93969.69
2019-05-15T04:03:20.279Z,93940.42
2019-05-15T04:05:49.506Z,93968.33
2019-05-15T04:08:19.463Z,93976.97
2019-05-15T04:10:48.919Z,93976.98
2019-05-15T04:13:19.481Z,93971.64
2019-05-15T04:15:50.318Z,93974.23
2019-05-15T04:18:19.872Z,93969.42
2019-05-15T04:20:49.461Z,93975.36
2019-05-15T04:23:22.848Z,93976.73
2019-05-15T04:25:53.377Z,93981.18
2019-05-15T04:28:23.449Z,93980.44
2019-05-15T04:30:52.121Z,93984.76
2019-05-15T04:33:20.792Z,93996.12
2019-05-15T04:35:49.813Z,93993.53
2019-05-15T04:38:19.537Z,93997.27
2019-05-15T04:40:50.026Z,93997.26
2019-05-15T04:43:19.535Z,93993.53
2019-05-15T04:45:49.761Z,93993.48
2019-05-15T04:48:20.103Z,93988.63
2019-05-15T04:50:49.812Z,93987.22
2019-05-15T04:53:19.212Z,93990.91
2019-05-15T04:55:49.113Z,93991.98
2019-05-15T04:58:20.759Z,93998.09
2019-05-15T05:00:53.168Z,93994.23
2019-05-15T05:03:21.843Z,94000.79
2019-05-15T05:05:51.028Z,93998.44
2019-05-15T05:08:20.661Z,93995.22
2019-05-15T05:10:49.715Z,93985.28
2019-05-15T05:13:19.983Z,93995.87
2019-05-15T05:15:50.110Z,93997.55
2019-05-15T05:18:19.684Z,93996.45
2019-05-15T05:20:48.785Z,94002.35
2019-05-15T05:23:19.285Z,94003.33
2019-05-15T05:25:49.183Z,94001.69
2019-05-15T05:28:18.557Z,94010.63
2019-05-15T05:30:48.389Z,94006.30
2019-05-15T05:33:18.381Z,94015.96
2019-05-15T05:35:48.451Z,94010.50
2019-05-15T05:38:19.088Z,94023.48
2019-05-15T05:40:49.495Z,94022.23
2019-05-15T05:43:19.059Z,94022.05
2019-05-15T05:45:49.248Z,94028.72
2019-05-15T05:48:18.969Z,94032.81
2019-05-15T05:50:49.660Z,94036.42
2019-05-15T05:53:21.189Z,94033.55
2019-05-15T05:55:52.940Z,94032.78
2019-05-15T05:58:20.413Z,94035.80
2019-05-15T06:00:49.840Z,94021.41
2019-05-15T06:03:19.541Z,94026.30
2019-05-15T06:05:49.723Z,94028.51
2019-05-15T06:08:19.865Z,94040.45
2019-05-15T06:10:49.771Z,94038.84
2019-05-15T06:13:19.819Z,94039.50
2019-05-15T06:15:49.086Z,94034.21
2019-05-15T06:18:19.752Z,94040.52
2019-05-15T06:20:49.798Z,94036.77
2019-05-15T06:23:24.875Z,94041.62
2019-05-15T06:25:50.267Z,94043.92
2019-05-15T06:28:20.351Z,94049.07
2019-05-15T06:30:49.339Z,94049.80
2019-05-15T06:33:18.850Z,94048.05
2019-05-15T06:35:49.418Z,94050.27
2019-05-15T06:38:19.508Z,94043.64
2019-05-15T06:40:49.175Z,94039.30
2019-05-15T06:43:19.135Z,94014.62
2019-05-15T06:45:49.172Z,94039.36
2019-05-15T06:48:18.755Z,94048.91
2019-05-15T06:50:49.043Z,94016.75
2019-05-15T06:53:19.282Z,94033.64
2019-05-15T06:55:48.912Z,94037.31
2019-05-15T06:58:19.084Z,94033.95
2019-05-15T07:00:49.326Z,94037.22
2019-05-15T07:03:25.421Z,94037.42
2019-05-15T07:05:50.284Z,94037.48
2019-05-15T07:08:18.401Z,94038.77
2019-05-15T07:10:48.614Z,94046.86
2019-05-15T07:13:18.324Z,94047.26
2019-05-15T07:15:49.397Z,94047.20
2019-05-15T07:18:19.693Z,94043.99
2019-05-15T07:20:49.247Z,94045.06
2019-05-15T07:23:19.057Z,94048.75
2019-05-15T07:25:49.661Z,94044.03
2019-05-15T07:28:18.907Z,94044.27
2019-05-15T07:30:49.334Z,94045.12
2019-05-15T07:33:27.895Z,94044.91
2019-05-15T07:35:49.631Z,94043.42
2019-05-15T07:38:18.698Z,94043.01
2019-05-15T07:40:55.457Z,94041.23
2019-05-15T07:43:18.292Z,94047.87
2019-05-15T07:45:54.021Z,94038.11
2019-05-15T07:48:18.762Z,94035.09
2019-05-15T07:50:49.793Z,94034.55
2019-05-15T07:53:19.621Z,94025.23
2019-05-15T07:55:50.545Z,94030.12
2019-05-15T07:58:21.616Z,94032.81
2019-05-15T08:00:50.137Z,94038.27
2019-05-15T08:03:18.935Z,94038.42
2019-05-15T08:05:58.283Z,94039.73
2019-05-15T08:08:18.686Z,94041.18
2019-05-15T08:10:49.026Z,94037.62
2019-05-15T08:13:18.625Z,94038.94
2019-05-15T08:15:48.772Z,94036.20
2019-05-15T08:18:18.548Z,94038.42
2019-05-15T08:20:48.925Z,94040.02
2019-05-15T08:23:19.309Z,94033.73
2019-05-15T08:25:48.850Z,94031.09
2019-05-15T08:28:19.165Z,94034.05
2019-05-15T08:30:49.453Z,94033.63
2019-05-15T08:33:19.265Z,94030.16
2019-05-15T08:35:51.566Z,94015.61
2019-05-15T08:38:18.741Z,94018.23
2019-05-15T08:40:49.001Z,94033.72
2019-05-15T08:43:18.797Z,94037.68
2019-05-15T08:45:49.579Z,94044.16
2019-05-15T08:48:18.671Z,94032.75
2019-05-15T08:50:48.640Z,94030.27
2019-05-15T08:53:19.301Z,94025.44
2019-05-15T08:55:49.655Z,94033.27
2019-05-15T08:58:20.112Z,94031.78
2019-05-15T09:00:52.422Z,94041.35
2019-05-15T09:03:20.282Z,94035.30
2019-05-15T09:05:49.040Z,94032.09
2019-05-15T09:08:19.259Z,94032.09
2019-05-15T09:10:50.257Z,94037.67
2019-05-15T09:13:19.229Z,94037.67
2019-05-15T09:15:49.287Z,94039.98
2019-05-15T09:18:20.201Z,94035.84
2019-05-15T09:20:49.466Z,94040.45
2019-05-15T09:23:20.293Z,94045.59
2019-05-15T09:25:49.718Z,94042.78
2019-05-15T09:28:19.484Z,94033.40
2019-05-15T09:30:48.863Z,94042.95
2019-05-15T09:33:19.930Z,94046.08
2019-05-15T09:35:49.299Z,94044.94
2019-05-15T09:38:18.785Z,94044.94
2019-05-15T09:40:50.186Z,94043.55
2019-05-15T09:43:18.394Z,94043.55
2019-05-15T09:45:49.239Z,94039.33
2019-05-15T09:48:19.730Z,94024.18
2019-05-15T09:50:49.302Z,94032.63
2019-05-15T09:53:19.108Z,94027.41
2019-05-15T09:55:49.382Z,94029.88
2019-05-15T09:58:20.418Z,94032.27
2019-05-15T10:00:52.044Z,94034.30
2019-05-15T10:03:20.723Z,94034.30
2019-05-15T10:05:49.538Z,94037.95
2019-05-15T10:08:21.331Z,94046.88
2019-05-15T10:10:49.164Z,94044.95
2019-05-15T10:13:18.711Z,94044.29
2019-05-15T10:15:50.894Z,94036.66
2019-05-15T10:18:19.070Z,94031.78
2019-05-15T10:20:48.413Z,94033.08
2019-05-15T10:23:19.633Z,94028.99
2019-05-15T10:25:48.579Z,94024.20
2019-05-15T10:28:19.198Z,94030.88
2019-05-15T10:30:49.683Z,94031.83
2019-05-15T10:33:20.103Z,94033.42
2019-05-15T10:35:49.299Z,94032.70
2019-05-15T10:38:19.389Z,94017.87
2019-05-15T10:41:00.054Z,93996.78
2019-05-15T10:43:20.668Z,94002.39
2019-05-15T10:45:50.206Z,94006.98
2019-05-15T10:48:22.771Z,94001.47
2019-05-15T10:50:51.435Z,93995.66
2019-05-15T10:53:20.353Z,93986.80
2019-05-15T10:55:49.683Z,93998.88
2019-05-15T10:58:22.036Z,93998.88
2019-05-15T11:00:49.589Z,93994.36
2019-05-15T11:03:19.983Z,93995.44
2019-05-15T11:05:50.437Z,93991.73
2019-05-15T11:08:19.313Z,94006.84
2019-05-15T11:10:49.460Z,93990.30
2019-05-15T11:13:19.005Z,93989.52
2019-05-15T11:15:49.111Z,93992.16
2019-05-15T11:18:18.186Z,93985.88
2019-05-15T11:20:48.484Z,93983.62
2019-05-15T11:23:20.133Z,93974.69
2019-05-15T11:25:48.965Z,93972.87
2019-05-15T11:28:17.892Z,93971.90
2019-05-15T11:30:48.944Z,93971.42
2019-05-15T11:33:18.883Z,93970.11
2019-05-15T11:35:58.006Z,93961.05
2019-05-15T11:38:19.482Z,93964.56
2019-05-15T11:40:48.540Z,93959.80
2019-05-15T11:43:19.776Z,93962.75
2019-05-15T11:45:50.864Z,93953.05
2019-05-15T11:48:20.678Z,93953.05
2019-05-15T11:50:49.617Z,93952.81
2019-05-15T11:53:19.216Z,93952.95
2019-05-15T11:55:48.497Z,93900.12
2019-05-15T11:58:18.913Z,93942.02
2019-05-15T12:00:49.087Z,93953.88
2019-05-15T12:03:19.101Z,93944.80
2019-05-15T12:05:48.237Z,93938.64
2019-05-15T12:08:18.591Z,93953.03
2019-05-15T12:10:47.322Z,93960.16
2019-05-15T12:13:18.700Z,93961.62
2019-05-15T12:15:48.435Z,93957.34
2019-05-15T12:18:16.967Z,93949.64
2019-05-15T12:20:48.324Z,93952.16
2019-05-15T12:23:16.519Z,93965.27
2019-05-15T12:25:48.496Z,93963.13
2019-05-15T12:28:15.868Z,93975.14
2019-05-15T12:30:48.680Z,93974.80
2019-05-15T12:33:18.321Z,93974.78
2019-05-15T12:35:50.236Z,93971.53
2019-05-15T12:38:18.603Z,93970.68
2019-05-15T13:00:51.547Z,93986.15
2019-05-15T13:03:20.228Z,93977.69
2019-05-15T13:05:48.967Z,93980.80
2019-05-15T13:08:19.476Z,93982.06
2019-05-15T13:10:48.817Z,93981.03
2019-05-15T13:13:18.713Z,93980.22
2019-05-15T13:15:48.241Z,93979.21
2019-05-15T13:18:18.034Z,93986.52
2019-05-15T13:20:48.972Z,93987.48
2019-05-15T13:23:17.204Z,93981.16
2019-05-15T13:25:48.144Z,93969.93
2019-05-15T13:28:18.348Z,93957.17
2019-05-15T13:30:48.959Z,93963.39
2019-05-15T13:33:17.190Z,93976.06
2019-05-15T13:35:45.886Z,93989.45
2019-05-15T13:38:14.539Z,93988.06
2019-05-15T13:40:43.321Z,93987.44
2019-05-15T13:43:12.006Z,93988.51
2019-05-15T13:45:40.686Z,93986.62
2019-05-15T13:48:09.379Z,93997.27
2019-05-15T13:50:40.428Z,94009.49
2019-05-15T13:53:11.138Z,94010.75
2019-05-15T13:55:42.833Z,94012.55
2019-05-15T13:58:10.956Z,93999.45
2019-05-15T14:00:39.726Z,93994.84
2019-05-15T14:03:09.360Z,93983.97
2019-05-15T14:05:38.795Z,93969.85
2019-05-15T14:08:07.650Z,93988.27
2019-05-15T14:10:38.656Z,93999.56
2019-05-15T14:13:06.848Z,94003.38
2019-05-15T14:15:38.031Z,93995.91
2019-05-15T14:18:08.384Z,93981.31
2019-05-15T14:20:38.641Z,93980.14
2019-05-15T14:23:08.697Z,93976.41
2019-05-15T14:25:38.791Z,93969.03
2019-05-15T14:28:08.907Z,93959.70
2019-05-15T14:30:37.951Z,93966.02
2019-05-15T14:33:08.572Z,93964.67
2019-05-15T14:35:37.936Z,93962.05
2019-05-15T14:38:10.177Z,93954.22
2019-05-15T14:40:37.494Z,93921.66
2019-05-15T14:43:08.894Z,93958.14
2019-05-15T14:45:38.832Z,93965.50
2019-05-15T14:48:08.910Z,93960.92
2019-05-15T14:50:38.438Z,93964.44
2019-05-15T14:53:09.551Z,93940.34
2019-05-15T14:55:44.034Z,93965.61
2019-05-15T14:58:08.545Z,93960.11
2019-05-15T15:00:41.228Z,93955.34
2019-05-15T15:03:09.769Z,93957.55
2019-05-15T15:05:38.811Z,93957.55
2019-05-15T15:08:18.479Z,93977.20
2019-05-15T15:10:38.592Z,93989.42
2019-05-15T15:13:09.373Z,93987.84
2019-05-15T15:15:38.174Z,93998.83
2019-05-15T15:18:08.359Z,93985.41
2019-05-15T15:20:38.079Z,93985.83
2019-05-15T15:23:08.438Z,93976.11
2019-05-15T15:25:39.793Z,93965.60
2019-05-15T15:28:08.620Z,93964.44
2019-05-15T15:30:38.509Z,93962.44
2019-05-15T15:33:08.580Z,93971.25
2019-05-15T15:35:38.345Z,93972.95
2019-05-15T15:38:12.711Z,93974.79
2019-05-15T15:40:38.810Z,93972.61
2019-05-15T15:43:09.044Z,93968.48
2019-05-15T15:45:39.100Z,93968.06
2019-05-15T15:48:08.675Z,93973.23
2019-05-15T15:50:38.365Z,93976.38
2019-05-15T15:53:08.834Z,93972.86
2019-05-15T15:55:38.775Z,93964.79
2019-05-15T15:58:08.754Z,93960.67
2019-05-15T16:00:38.708Z,93975.03
2019-05-15T16:03:08.448Z,93971.25
2019-05-15T16:05:38.383Z,93972.95
2019-05-15T16:08:08.490Z,93969.72
2019-05-15T16:10:37.925Z,93985.52
2019-05-15T16:13:09.183Z,93985.50
2019-05-15T16:15:38.477Z,93989.15
2019-05-15T16:18:09.011Z,93980.47
2019-05-15T16:20:39.576Z,93975.56
2019-05-15T16:23:08.767Z,93968.13
2019-05-15T16:25:38.527Z,93963.41
2019-05-15T16:28:08.830Z,93965.09
2019-05-15T16:30:50.263Z,93974.17
2019-05-15T16:33:09.521Z,93974.79
2019-05-15T16:35:38.718Z,93976.70
2019-05-15T16:38:09.276Z,93976.30
2019-05-15T16:40:38.392Z,93978.09
2019-05-15T16:43:07.253Z,93973.11
2019-05-15T16:45:38.569Z,93972.80
2019-05-15T16:48:06.454Z,93975.53
2019-05-15T16:50:35.139Z,93981.55
2019-05-15T16:53:03.821Z,93986.19
2019-05-15T16:55:32.620Z,93982.48
2019-05-15T16:58:01.342Z,93986.17
2019-05-15T17:00:30.193Z,93989.88
2019-05-15T17:03:08.993Z,94005.91
2019-05-15T17:05:29.309Z,94022.02
2019-05-15T17:07:58.482Z,94026.44
2019-05-15T17:10:28.202Z,94019.09
2019-05-15T17:12:58.296Z,94021.41
2019-05-15T17:15:27.976Z,94025.73
2019-05-15T17:17:58.349Z,94023.52
2019-05-15T17:20:28.472Z,94020.66
2019-05-15T17:22:57.944Z,94027.52
2019-05-15T17:25:26.942Z,94026.04
2019-05-15T17:27:55.619Z,94025.09
2019-05-15T17:30:24.406Z,94028.36
2019-05-15T17:32:53.151Z,94032.16
2019-05-15T17:35:21.830Z,94041.31
2019-05-15T17:37:50.509Z,94047.98
2019-05-15T17:40:19.250Z,94045.01
2019-05-15T17:42:49.277Z,94040.86
2019-05-15T17:45:19.314Z,94047.18
2019-05-15T17:47:48.762Z,94053.41
2019-05-15T17:50:19.044Z,94062.78
2019-05-15T17:52:49.149Z,93991.59
2019-05-15T17:55:18.422Z,94052.77
2019-05-15T17:57:54.561Z,94054.97
2019-05-15T18:00:19.284Z,94062.52
2019-05-15T18:02:48.665Z,94063.70
2019-05-15T18:05:18.893Z,94067.17
2019-05-15T18:07:48.809Z,94073.36
2019-05-15T18:10:18.788Z,94075.59
2019-05-15T18:12:48.839Z,94076.02
2019-05-15T18:15:18.308Z,94082.80
2019-05-15T18:17:48.126Z,94075.22
2019-05-15T18:20:24.925Z,94088.02
2019-05-15T18:22:53.611Z,94093.70
2019-05-15T18:25:22.412Z,94097.84
2019-05-15T18:27:51.095Z,94106.78
2019-05-15T18:30:20.698Z,94109.16
2019-05-15T18:32:49.406Z,94109.89
2019-05-15T18:35:18.769Z,94103.41
2019-05-15T18:37:48.263Z,94091.33
2019-05-15T18:40:18.962Z,94101.01
2019-05-15T18:42:49.537Z,94098.29
2019-05-15T18:45:18.812Z,94096.11
2019-05-15T18:47:48.041Z,94087.48
2019-05-15T18:50:17.479Z,94085.62
2019-05-15T18:52:48.643Z,94081.44
2019-05-15T18:55:18.396Z,94076.73
2019-05-15T18:57:48.603Z,94079.87
2019-05-15T19:00:18.593Z,94082.43
2019-05-15T19:02:47.539Z,94081.41
2019-05-15T19:05:18.548Z,94086.71
2019-05-15T19:07:48.716Z,94081.86
2019-05-15T19:10:20.612Z,94082.28
2019-05-15T19:12:49.268Z,94079.16
2019-05-15T19:15:19.137Z,94073.39
2019-05-15T19:17:47.907Z,94078.08
2019-05-15T19:20:18.960Z,94080.05
2019-05-15T19:22:48.337Z,94077.44
2019-05-15T19:25:18.005Z,94080.41
2019-05-15T19:27:47.044Z,94080.05
2019-05-15T19:30:18.998Z,94077.20
2019-05-15T19:32:49.139Z,94076.55
2019-05-15T19:35:18.599Z,94088.72
2019-05-15T19:37:48.893Z,94088.47
2019-05-15T19:40:18.733Z,94098.59
2019-05-15T19:42:48.791Z,94101.34
2019-05-15T19:45:18.142Z,94103.08
2019-05-15T19:47:48.265Z,94110.61
2019-05-15T19:50:18.095Z,94088.33
2019-05-15T19:52:48.266Z,94107.00
2019-05-15T19:55:17.987Z,94104.20
2019-05-15T19:57:47.467Z,94100.25
2019-05-15T20:00:18.659Z,94094.98
2019-05-15T20:02:48.594Z,94100.10
2019-05-15T20:05:18.317Z,94109.70
2019-05-15T20:07:48.005Z,94109.25
2019-05-15T20:10:18.639Z,94109.44
2019-05-15T20:12:47.975Z,94099.91
2019-05-15T20:15:19.058Z,94102.17
2019-05-15T20:17:48.139Z,94096.66
2019-05-15T20:20:18.677Z,94101.69
2019-05-15T20:22:47.597Z,94107.98
2019-05-15T20:25:18.346Z,94107.95
2019-05-15T20:27:48.115Z,94109.01
2019-05-15T20:30:18.087Z,94114.34
2019-05-15T20:32:47.915Z,94113.09
2019-05-15T20:35:17.095Z,94107.91
2019-05-15T20:37:45.781Z,94110.55
2019-05-15T20:40:15.345Z,94102.12
2019-05-15T20:42:44.027Z,94091.98
2019-05-15T20:45:12.908Z,94068.61
2019-05-15T20:47:41.579Z,94088.75
2019-05-15T20:50:10.964Z,94092.24
2019-05-15T20:52:39.877Z,94083.83
2019-05-15T20:55:09.670Z,94079.52
2019-05-15T20:57:40.813Z,94078.86
2019-05-15T21:00:11.178Z,94074.75
2019-05-15T21:02:40.035Z,94079.64
2019-05-15T21:05:09.194Z,94068.91
2019-05-15T21:07:42.075Z,94068.53
2019-05-15T21:10:09.461Z,94060.57
2019-05-15T21:12:40.923Z,94051.50
2019-05-15T21:15:10.790Z,94048.34
2019-05-15T21:17:42.005Z,94052.45
2019-05-15T21:20:10.165Z,94051.08
2019-05-15T21:22:40.220Z,94052.17
2019-05-15T21:25:10.970Z,94051.80
2019-05-15T21:27:42.606Z,94047.84
2019-05-15T21:30:11.185Z,94058.39
2019-05-15T21:32:39.882Z,94050.23
2019-05-15T21:35:09.474Z,94055.94
2019-05-15T21:37:39.277Z,94063.50
2019-05-15T21:40:09.024Z,94055.84
2019-05-15T21:42:38.863Z,94057.84
2019-05-15T21:45:14.193Z,94061.80
2019-05-15T21:47:39.951Z,94064.55
2019-05-15T21:50:09.321Z,94068.26
2019-05-15T21:52:39.182Z,94063.06
2019-05-15T21:55:09.833Z,94059.27
2019-05-15T21:57:42.341Z,94054.07
2019-05-15T22:00:31.182Z,94056.19
2019-05-15T22:02:59.979Z,94062.63
2019-05-15T22:05:30.346Z,94061.01
2019-05-15T22:07:59.110Z,94062.24
2019-05-15T22:10:28.785Z,94054.92
2019-05-15T22:12:58.917Z,94051.70
2019-05-15T22:15:29.189Z,94056.41
2019-05-15T22:17:58.464Z,94059.36
2019-05-15T22:20:30.116Z,94065.16
2019-05-15T22:22:59.573Z,94060.72
2019-05-15T22:25:29.334Z,94060.98
2019-05-15T22:27:58.303Z,94061.07
2019-05-15T22:30:29.918Z,94064.30
2019-05-15T22:32:58.665Z,94068.52
2019-05-15T22:35:29.406Z,94067.91
2019-05-15T22:37:58.676Z,94062.09
2019-05-15T22:40:28.996Z,94058.13
2019-05-15T22:42:59.212Z,94052.11
2019-05-15T22:45:28.808Z,94046.44
2019-05-15T22:47:58.600Z,94047.55
2019-05-15T22:50:28.180Z,94040.23
2019-05-15T22:52:58.752Z,94038.40
2019-05-15T22:55:29.036Z,94039.76
2019-05-15T22:57:58.597Z,94034.31
2019-05-15T23:00:29.102Z,94033.94
2019-05-15T23:02:58.204Z,94033.39
2019-05-15T23:05:31.400Z,94032.52
2019-05-15T23:07:58.982Z,94029.02
2019-05-15T23:10:29.219Z,94030.00
2019-05-15T23:12:58.338Z,94026.08
2019-05-15T23:15:28.163Z,94016.89
2019-05-15T23:17:58.298Z,94020.77
2019-05-15T23:20:28.506Z,94011.48
2019-05-15T23:22:58.374Z,94012.80
2019-05-15T23:25:28.961Z,94010.08
2019-05-15T23:27:58.333Z,94006.59
2019-05-15T23:30:28.892Z,94002.77
2019-05-15T23:32:58.209Z,94004.55
2019-05-15T23:35:35.513Z,93998.12
2019-05-15T23:37:58.182Z,94004.17
2019-05-15T23:40:28.728Z,94003.14
2019-05-15T23:42:57.703Z,94005.09
2019-05-15T23:45:28.759Z,94004.59
2019-05-15T23:47:57.978Z,94003.34
2019-05-15T23:50:28.813Z,93995.84
2019-05-15T23:52:58.366Z,93996.33
2019-05-15T23:55:28.574Z,93992.49
2019-05-15T23:57:58.474Z,93990.88
